Time;durP1;ratioP1;P1;durP2;ratioP2;P2;SDS_P1;SDS_P2;PMS_P1;PMS_P2;Temp;Humidity;BMP_temperature;BMP_pressure;BME280_temperature;BME280_humidity;BME280_pressure;Samples;Min_cycle;Max_cycle;Signal;HPM_P1;HPM_P2
2022/04/09 00:00:21;;;;;;;9.40;5.50;;;435.40;1766.40;;;;;;5030762;28;20127;-56
2022/04/09 00:02:47;;;;;;;7.85;4.78;;;435.40;1766.40;;;;;;5030483;28;20038;-56
2022/04/09 00:05:13;;;;;;;5.70;3.60;;;435.40;1766.40;;;;;;5030735;28;20030;-58
2022/04/09 00:07:39;;;;;;;8.15;4.78;;;435.30;1766.40;;;;;;5030406;28;20399;-55
2022/04/09 00:10:07;;;;;;;7.75;4.38;;;435.30;1766.40;;;;;;5030581;28;20021;-57
2022/04/09 00:12:33;;;;;;;10.13;4.20;;;435.30;1792.00;;;;;;5030711;28;20022;-57
2022/04/09 00:14:59;;;;;;;8.50;5.82;;;435.30;1792.00;;;;;;5030222;28;20479;-56
2022/04/09 00:17:25;;;;;;;8.27;5.88;;;435.30;1792.00;;;;;;5030545;28;20025;-57
2022/04/09 00:19:51;;;;;;;7.28;4.30;;;435.30;1792.00;;;;;;5030553;28;20379;-55
2022/04/09 00:22:17;;;;;;;13.27;4.57;;;435.30;1766.40;;;;;;5030209;28;20100;-57
2022/04/09 00:24:42;;;;;;;8.50;5.00;;;435.30;1792.00;;;;;;5030532;28;20444;-56
2022/04/09 00:27:08;;;;;;;8.18;5.03;;;435.30;1792.00;;;;;;5029967;28;20112;-56
2022/04/09 00:29:34;;;;;;;5.68;4.50;;;435.30;1792.00;;;;;;5030020;28;20030;-56
2022/04/09 00:32:00;;;;;;;5.32;4.15;;;435.30;1792.00;;;;;;5030384;28;20025;-56
2022/04/09 00:34:26;;;;;;;7.85;3.17;;;435.30;1792.00;;;;;;5029716;28;20624;-55
2022/04/09 00:36:52;;;;;;;7.38;3.40;;;435.30;1792.00;;;;;;5030198;28;20041;-55
2022/04/09 00:39:18;;;;;;;5.55;3.47;;;435.30;1817.60;;;;;;5029942;28;20025;-55
2022/04/09 00:41:47;;;;;;;6.15;3.30;;;435.30;1817.60;;;;;;5030173;28;20021;-56
2022/04/09 00:44:20;;;;;;;6.35;3.22;;;435.20;1817.60;;;;;;5030165;28;20079;-56
2022/04/09 00:46:46;;;;;;;;;;;435.20;1817.60;;;;;;5030371;28;20120;-55
2022/04/09 00:49:13;;;;;;;5.82;3.50;;;435.20;1817.60;;;;;;5029169;28;19999;-56
2022/04/09 00:51:44;;;;;;;7.18;5.07;;;410.50;1843.20;;;;;;5029986;28;20037;-55
2022/04/09 00:54:13;;;;;;;10.15;3.30;;;410.50;1843.20;;;;;;5030199;28;20028;-58
2022/04/09 00:56:41;;;;;;;9.77;5.32;;;410.50;1868.80;;;;;;5030194;28;20022;-57
2022/04/09 00:59:11;;;;;;;5.85;3.85;;;410.50;1868.80;;;;;;5029991;28;20041;-55
2022/04/09 01:01:38;;;;;;;7.57;4.72;;;410.50;1843.20;;;;;;5029476;28;20033;-55
2022/04/09 01:04:10;;;;;;;10.32;4.68;;;435.20;1843.20;;;;;;5029492;28;20029;-56
2022/04/09 01:06:37;;;;;;;5.60;3.22;;;435.20;1868.80;;;;;;5027268;28;20059;-56
2022/04/09 01:09:07;;;;;;;6.30;2.97;;;435.20;1868.80;;;;;;5029740;28;20013;-55
2022/04/09 01:11:35;;;;;;;9.10;4.07;;;410.50;1868.80;;;;;;5027238;28;20100;-56
2022/04/09 01:14:01;;;;;;;7.28;3.13;;;410.50;1894.40;;;;;;5029659;28;20081;-56
2022/04/09 01:16:29;;;;;;;6.28;4.60;;;410.40;1920.00;;;;;;5029148;28;20028;-56
2022/04/09 01:18:56;;;;;;;5.65;2.55;;;410.40;1894.40;;;;;;5029238;28;20018;-56
2022/04/09 01:21:25;;;;;;;6.00;2.55;;;410.50;1894.40;;;;;;5029493;28;20026;-55
2022/04/09 01:23:50;;;;;;;5.75;2.90;;;410.40;1920.00;;;;;;5029800;28;20032;-57
2022/04/09 01:26:16;;;;;;;9.82;4.35;;;410.40;1920.00;;;;;;5029428;28;20038;-55
2022/04/09 01:28:43;;;;;;;6.72;3.38;;;410.40;1920.00;;;;;;5029915;28;20131;-56
2022/04/09 01:31:09;;;;;;;12.88;6.78;;;410.40;1945.60;;;;;;5029836;28;20037;-57
2022/04/09 01:33:35;;;;;;;10.88;5.22;;;410.40;1945.60;;;;;;5029442;28;20052;-57
2022/04/09 01:36:01;;;;;;;20.38;11.38;;;410.40;1945.60;;;;;;5029614;28;20025;-57
2022/04/09 01:38:27;;;;;;;45.63;25.25;;;410.30;1945.60;;;;;;5029618;28;20052;-56
2022/04/09 01:40:56;;;;;;;13.93;5.63;;;410.30;1945.60;;;;;;5032256;28;20472;-56
2022/04/09 01:43:22;;;;;;;13.05;5.90;;;410.40;1945.60;;;;;;5033391;28;20075;-54
2022/04/09 01:45:47;;;;;;;5.90;3.35;;;410.40;1945.60;;;;;;5033097;28;20026;-56
2022/04/09 01:48:13;;;;;;;11.55;6.40;;;410.30;1996.80;;;;;;5033298;28;20021;-57
2022/04/09 01:50:40;;;;;;;9.18;5.05;;;410.30;1996.80;;;;;;5033063;28;20030;-55
2022/04/09 01:53:06;;;;;;;22.63;10.98;;;410.30;1996.80;;;;;;5033077;28;20117;-57
2022/04/09 01:55:32;;;;;;;7.72;5.05;;;410.30;1996.80;;;;;;5033215;28;20053;-56
2022/04/09 01:57:59;;;;;;;10.32;3.88;;;410.30;1996.80;;;;;;5032985;28;20024;-55
2022/04/09 02:00:25;;;;;;;7.03;3.97;;;410.20;2022.40;;;;;;5032766;28;20022;-57
2022/04/09 02:02:51;;;;;;;22.33;13.90;;;410.20;2048.00;;;;;;5032937;28;20129;-57
2022/04/09 02:05:18;;;;;;;15.65;8.93;;;410.20;2022.40;;;;;;5032596;28;20112;-59
2022/04/09 02:07:45;;;;;;;19.05;9.70;;;410.20;2022.40;;;;;;5032764;28;20048;-56
2022/04/09 02:10:12;;;;;;;25.45;17.88;;;410.10;2073.60;;;;;;5032990;28;20023;-61
2022/04/09 02:12:38;;;;;;;12.15;7.45;;;410.00;2099.20;;;;;;5045627;28;20033;-56
2022/04/09 02:15:07;;;;;;;9.40;3.80;;;410.00;2099.20;;;;;;5052888;28;20017;-55
2022/04/09 02:17:35;;;;;;;3.38;2.17;;;410.00;2099.20;;;;;;5052790;28;20463;-57
2022/04/09 02:20:05;;;;;;;8.35;5.25;;;410.30;2124.80;;;;;;5052464;28;20052;-59
2022/04/09 02:22:38;;;;;;;14.32;7.63;;;410.20;2073.60;;;;;;5052607;28;20155;-56
2022/04/09 02:25:04;;;;;;;7.80;4.68;;;410.10;2099.20;;;;;;5052546;28;20082;-58
2022/04/09 02:27:30;;;;;;;6.55;2.83;;;410.00;2150.40;;;;;;5052371;28;20037;-56
2022/04/09 02:29:56;;;;;;;14.13;6.88;;;410.00;2150.40;;;;;;5052173;28;20387;-58
2022/04/09 02:32:22;;;;;;;8.80;5.03;;;410.00;2124.80;;;;;;5050863;28;20036;-58
2022/04/09 02:34:49;;;;;;;17.92;10.65;;;410.00;2124.80;;;;;;5052038;28;20053;-58
2022/04/09 02:37:15;;;;;;;6.03;2.97;;;410.00;2124.80;;;;;;5052115;28;20025;-57
2022/04/09 02:39:42;;;;;;;15.23;6.93;;;410.00;2176.00;;;;;;5052221;28;20033;-56
2022/04/09 02:42:08;;;;;;;8.85;4.72;;;410.00;2150.40;;;;;;5051869;28;20029;-57
2022/04/09 02:44:34;;;;;;;12.50;6.30;;;409.90;2176.00;;;;;;5052305;28;20025;-56
2022/04/09 02:47:00;;;;;;;14.15;8.57;;;409.90;2176.00;;;;;;5052056;28;20394;-56
2022/04/09 02:49:25;;;;;;;6.25;3.80;;;409.90;2201.60;;;;;;5051773;28;20025;-57
2022/04/09 02:51:51;;;;;;;8.98;5.03;;;409.90;2201.60;;;;;;5051370;28;20029;-55
2022/04/09 02:54:17;;;;;;;7.35;4.00;;;410.00;2124.80;;;;;;5051829;28;20036;-58
2022/04/09 02:56:44;;;;;;;8.40;4.90;;;410.00;2150.40;;;;;;5052180;28;20438;-58
2022/04/09 02:59:12;;;;;;;12.68;4.80;;;410.00;2150.40;;;;;;5051934;28;20020;-59
2022/04/09 03:01:38;;;;;;;7.50;2.95;;;410.10;2124.80;;;;;;5051545;28;20067;-57
2022/04/09 03:04:04;;;;;;;9.40;3.95;;;410.00;2124.80;;;;;;5051879;28;20029;-58
2022/04/09 03:06:30;;;;;;;7.88;4.00;;;410.20;2099.20;;;;;;5051522;28;20041;-57
2022/04/09 03:08:55;;;;;;;15.35;9.90;;;410.10;2124.80;;;;;;5051673;28;20490;-57
2022/04/09 03:11:21;;;;;;;16.33;8.18;;;410.00;2124.80;;;;;;5051831;28;20028;-58
2022/04/09 03:13:47;;;;;;;15.15;10.38;;;410.00;2150.40;;;;;;5051353;28;20064;-56
2022/04/09 03:16:13;;;;;;;5.22;2.80;;;409.90;2176.00;;;;;;5051473;28;20044;-57
2022/04/09 03:18:38;;;;;;;9.00;5.38;;;409.90;2150.40;;;;;;5051161;28;20086;-57
2022/04/09 03:21:04;;;;;;;9.13;6.25;;;410.00;2150.40;;;;;;5051311;28;20031;-57
2022/04/09 03:23:30;;;;;;;8.00;3.40;;;409.90;2150.40;;;;;;5051436;28;20032;-57
2022/04/09 03:25:55;;;;;;;9.88;3.55;;;409.90;2150.40;;;;;;5051271;28;20086;-57
2022/04/09 03:28:21;;;;;;;6.93;2.85;;;409.90;2176.00;;;;;;5051346;28;20090;-56
2022/04/09 03:30:47;;;;;;;11.43;7.30;;;409.90;2201.60;;;;;;5051049;28;20025;-56
2022/04/09 03:33:13;;;;;;;11.60;7.60;;;409.90;2176.00;;;;;;5051078;28;20418;-56
2022/04/09 03:35:40;;;;;;;12.45;7.63;;;409.90;2176.00;;;;;;5050771;28;20055;-57
2022/04/09 03:38:06;;;;;;;15.40;6.72;;;409.90;2176.00;;;;;;5051254;28;20384;-57
2022/04/09 03:40:31;;;;;;;14.73;6.20;;;409.90;2176.00;;;;;;5051148;28;20017;-57
2022/04/09 03:42:57;;;;;;;15.73;10.38;;;409.80;2201.60;;;;;;5049505;28;20040;-58
2022/04/09 03:45:23;;;;;;;11.75;8.20;;;409.90;2176.00;;;;;;5051101;28;20058;-59
2022/04/09 03:47:48;;;;;;;8.13;3.97;;;409.90;2176.00;;;;;;5050674;28;20132;-58
2022/04/09 03:50:14;;;;;;;9.40;4.55;;;409.90;2176.00;;;;;;5050658;28;20031;-58
2022/04/09 03:52:40;;;;;;;20.30;10.95;;;409.90;2176.00;;;;;;5050678;28;20489;-57
2022/04/09 03:55:07;;;;;;;17.38;11.63;;;409.80;2176.00;;;;;;5050883;28;20033;-58
2022/04/09 03:57:32;;;;;;;16.42;4.18;;;409.90;2176.00;;;;;;5050815;28;20471;-55
2022/04/09 03:59:58;;;;;;;12.80;6.78;;;409.90;2176.00;;;;;;5050447;28;20039;-56
2022/04/09 04:02:24;;;;;;;20.58;13.80;;;409.90;2201.60;;;;;;5050088;28;20028;-57
2022/04/09 04:04:50;;;;;;;16.08;10.45;;;409.90;2201.60;;;;;;5049791;28;20032;-57
2022/04/09 04:07:23;;;;;;;11.27;7.85;;;409.80;2201.60;;;;;;5050175;28;20075;-57
2022/04/09 04:09:49;;;;;;;10.07;6.10;;;409.90;2201.60;;;;;;5050256;28;20071;-58
2022/04/09 04:12:15;;;;;;;8.60;5.65;;;409.70;2227.20;;;;;;5050485;28;20033;-56
2022/04/09 04:14:41;;;;;;;11.65;8.02;;;409.80;2227.20;;;;;;5050480;28;20039;-57
2022/04/09 04:17:07;;;;;;;13.82;8.18;;;409.70;2227.20;;;;;;5050190;28;20079;-58
2022/04/09 04:19:33;;;;;;;17.95;8.77;;;409.80;2227.20;;;;;;5050579;28;20021;-57
2022/04/09 04:21:58;;;;;;;5.72;2.90;;;409.80;2227.20;;;;;;5049914;28;20110;-56
2022/04/09 04:24:24;;;;;;;8.07;4.90;;;409.90;2201.60;;;;;;5050139;28;20472;-57
2022/04/09 04:26:50;;;;;;;9.35;5.20;;;409.90;2201.60;;;;;;5050419;28;20029;-57
2022/04/09 04:29:15;;;;;;;7.20;3.55;;;410.00;2176.00;;;;;;5050056;28;20523;-57
2022/04/09 04:31:41;;;;;;;4.65;2.60;;;409.90;2201.60;;;;;;5050347;28;20025;-56
2022/04/09 04:34:07;;;;;;;6.57;2.88;;;410.00;2176.00;;;;;;5049699;28;20064;-56
2022/04/09 04:36:33;;;;;;;6.70;3.28;;;410.10;2150.40;;;;;;5050271;28;20107;-57
2022/04/09 04:38:58;;;;;;;6.57;2.97;;;410.10;2150.40;;;;;;5050400;28;20032;-57
2022/04/09 04:41:24;;;;;;;7.35;2.97;;;410.20;2124.80;;;;;;5050022;28;20546;-58
2022/04/09 04:43:52;;;;;;;5.93;3.40;;;410.20;2124.80;;;;;;5050224;28;20087;-58
2022/04/09 04:46:19;;;;;;;6.78;2.75;;;410.20;2099.20;;;;;;5049767;28;20029;-57
2022/04/09 04:48:46;;;;;;;5.55;2.83;;;410.20;2124.80;;;;;;5049802;28;20021;-57
2022/04/09 04:51:12;;;;;;;6.07;3.28;;;410.20;2124.80;;;;;;5049765;28;20456;-57
2022/04/09 04:53:38;;;;;;;6.55;3.20;;;410.20;2124.80;;;;;;5049829;28;20096;-58
2022/04/09 04:56:04;;;;;;;6.38;2.70;;;410.30;2099.20;;;;;;5050426;28;20440;-57
2022/04/09 04:58:29;;;;;;;5.15;3.60;;;410.50;2073.60;;;;;;5050015;28;20032;-57
2022/04/09 05:00:55;;;;;;;6.43;3.20;;;410.50;2073.60;;;;;;5049849;28;20412;-56
2022/04/09 05:03:21;;;;;;;5.28;2.80;;;435.30;2048.00;;;;;;5034622;28;20079;-58
2022/04/09 05:05:47;;;;;;;8.25;2.95;;;435.40;2022.40;;;;;;5029559;28;20038;-57
2022/04/09 05:08:13;;;;;;;5.40;2.70;;;435.60;1996.80;;;;;;5029710;28;20026;-55
2022/04/09 05:10:39;;;;;;;6.07;3.13;;;435.80;1971.20;;;;;;5028971;28;20100;-53
2022/04/09 05:13:05;;;;;;;4.03;2.80;;;436.10;1945.60;;;;;;5029055;28;20033;-56
2022/04/09 05:15:31;;;;;;;7.20;3.08;;;461.00;1920.00;;;;;;5031847;28;20021;-53
2022/04/09 05:18:00;;;;;;;6.90;2.63;;;461.30;1894.40;;;;;;5033087;28;20025;-55
2022/04/09 05:20:25;;;;;;;6.70;2.85;;;461.70;1817.60;;;;;;5032935;28;20022;-55
2022/04/09 05:22:51;;;;;;;6.25;2.40;;;486.40;1792.00;;;;;;5033221;28;20357;-56
2022/04/09 05:25:21;;;;;;;6.10;3.13;;;461.60;1792.00;;;;;;5033590;28;20033;-57
2022/04/09 05:27:49;;;;;;;4.70;2.75;;;461.60;1792.00;;;;;;5035501;28;20045;-57
2022/04/09 05:30:15;;;;;;;8.77;2.78;;;461.60;1792.00;;;;;;5033451;28;20037;-57
2022/04/09 05:32:41;;;;;;;9.10;2.92;;;461.70;1792.00;;;;;;5033641;28;20034;-57
2022/04/09 05:35:08;;;;;;;8.43;2.80;;;461.70;1792.00;;;;;;5033141;28;20079;-57
2022/04/09 05:37:34;;;;;;;8.95;7.50;;;486.40;1792.00;;;;;;5033369;28;20029;-57
2022/04/09 05:39:59;;;;;;;4.28;2.67;;;486.60;1766.40;;;;;;5033387;28;20030;-57
2022/04/09 05:42:26;;;;;;;7.82;2.58;;;486.80;1715.20;;;;;;5033359;28;20025;-55
2022/04/09 05:44:55;;;;;;;5.32;2.67;;;487.00;1715.20;;;;;;5033499;28;20109;-56
2022/04/09 05:47:21;;;;;;;6.43;2.38;;;487.30;1689.60;;;;;;5033230;28;20428;-62
2022/04/09 05:49:47;;;;;;;5.63;3.78;;;512.10;1664.00;;;;;;5033059;28;20029;-58
2022/04/09 05:52:13;;;;;;;12.93;4.63;;;512.30;1664.00;;;;;;5033037;28;20449;-58
2022/04/09 05:54:39;;;;;;;8.82;3.45;;;512.50;1638.40;;;;;;5033120;28;20026;-57
2022/04/09 05:57:05;;;;;;;8.05;3.47;;;512.80;1612.80;;;;;;5033432;28;20026;-58
2022/04/09 05:59:32;;;;;;;7.35;2.70;;;538.00;1587.20;;;;;;5033161;28;20025;-57
2022/04/09 06:01:58;;;;;;;5.65;2.65;;;538.10;1561.60;;;;;;5032892;28;20384;-58
2022/04/09 06:04:23;;;;;;;6.63;2.53;;;537.80;1587.20;;;;;;5032813;28;20033;-58
2022/04/09 06:06:50;;;;;;;8.00;3.17;;;537.70;1587.20;;;;;;5032591;28;20518;-57
2022/04/09 06:09:16;;;;;;;5.85;2.80;;;537.70;1587.20;;;;;;5032701;28;20040;-57
2022/04/09 06:11:42;;;;;;;5.40;2.50;;;537.60;1587.20;;;;;;5033034;28;20071;-57
2022/04/09 06:14:10;;;;;;;6.43;2.70;;;512.90;1561.60;;;;;;5032565;28;20403;-57
2022/04/09 06:16:38;;;;;;;8.95;3.00;;;512.90;1587.20;;;;;;5031260;28;20502;-58
2022/04/09 06:19:05;;;;;;;7.30;2.92;;;512.90;1587.20;;;;;;5032875;28;20075;-58
2022/04/09 06:21:32;;;;;;;7.20;2.55;;;537.60;1587.20;;;;;;5032429;28;20029;-59
2022/04/09 06:23:59;;;;;;;5.65;2.72;;;537.60;1587.20;;;;;;5032300;28;20480;-59
2022/04/09 06:26:24;;;;;;;5.30;2.63;;;537.60;1587.20;;;;;;5030698;28;20041;-56
2022/04/09 06:28:50;;;;;;;5.55;2.50;;;512.80;1561.60;;;;;;5032564;28;20014;-58
2022/04/09 06:31:16;;;;;;;4.85;2.60;;;512.50;1561.60;;;;;;5032417;28;20025;-56
2022/04/09 06:33:42;;;;;;;6.88;2.88;;;512.60;1587.20;;;;;;5032140;28;20565;-58
2022/04/09 06:36:08;;;;;;;10.52;3.13;;;512.70;1587.20;;;;;;5032057;28;20034;-59
2022/04/09 06:38:34;;;;;;;7.75;3.13;;;512.80;1561.60;;;;;;5032112;28;20433;-60
2022/04/09 06:41:00;;;;;;;8.90;3.05;;;538.20;1536.00;;;;;;5032275;28;20060;-61
2022/04/09 06:43:30;;;;;;;9.93;3.83;;;563.30;1510.40;;;;;;5031358;28;20061;-66
2022/04/09 06:45:56;;;;;;;10.10;4.70;;;563.60;1510.40;;;;;;5031289;28;20487;-62
2022/04/09 06:48:22;;;;;;;5.97;3.30;;;564.00;1484.80;;;;;;5032101;28;20472;-58
2022/04/09 06:50:48;;;;;;;8.95;4.70;;;563.90;1459.20;;;;;;5032027;28;20017;-66
2022/04/09 06:53:14;;;;;;;8.35;5.55;;;614.50;1382.40;;;;;;5032023;28;20088;-60
2022/04/09 06:55:41;;;;;;;5.63;3.53;;;614.60;1356.80;;;;;;5031829;28;20049;-67
2022/04/09 06:58:06;;;;;;;5.10;3.60;;;615.20;1331.20;;;;;;5031990;28;20030;-59
2022/04/09 07:00:33;;;;;;;5.65;4.30;;;640.50;1305.60;;;;;;5032091;28;20021;-67
2022/04/09 07:03:00;;;;;;;5.90;3.80;;;717.20;1177.60;;;;;;5031703;28;20061;-62
2022/04/09 07:05:27;;;;;;;10.15;4.20;;;768.50;1100.80;;;;;;5030734;28;20381;-64
2022/04/09 07:07:53;;;;;;;5.88;3.58;;;743.10;1100.80;;;;;;5031727;28;20065;-60
2022/04/09 07:10:18;;;;;;;7.88;3.53;;;794.00;1024.00;;;;;;5031539;28;20052;-65
2022/04/09 07:12:44;;;;;;;6.40;3.50;;;768.70;1024.00;;;;;;5031810;28;20030;-61
2022/04/09 07:15:11;;;;;;;5.90;3.50;;;743.20;1075.20;;;;;;5031722;28;20029;-70
2022/04/09 07:17:38;;;;;;;4.28;2.75;;;743.10;1075.20;;;;;;5031420;28;20034;-62
2022/04/09 07:20:07;;;;;;;9.48;3.47;;;717.10;1100.80;;;;;;5031694;28;20104;-60
2022/04/09 07:22:34;;;;;;;5.07;3.00;;;691.30;1152.00;;;;;;5031469;28;20036;-67
2022/04/09 07:25:00;;;;;;;5.68;2.63;;;640.90;1203.20;;;;;;5031440;28;20022;-67
2022/04/09 07:27:41;;;;;;;7.63;2.80;;;615.10;1280.00;;;;;;5031156;28;20041;-58
2022/04/09 07:30:09;;;;;;;5.25;3.10;;;614.80;1305.60;;;;;;5031332;28;20104;-63
2022/04/09 07:32:35;;;;;;;9.32;4.43;;;614.50;1331.20;;;;;;5031244;28;20033;-60
2022/04/09 07:35:02;;;;;;;5.18;2.70;;;614.50;1305.60;;;;;;5031158;28;20045;-66
2022/04/09 07:37:27;;;;;;;5.35;2.88;;;614.40;1305.60;;;;;;5030784;28;20030;-68
2022/04/09 07:39:53;;;;;;;5.97;3.97;;;614.40;1305.60;;;;;;5031282;28;20057;-66
2022/04/09 07:42:20;;;;;;;10.05;8.27;;;589.60;1331.20;;;;;;5031258;28;20029;-66
2022/04/09 07:44:47;;;;;;;7.72;5.13;;;589.50;1382.40;;;;;;5030998;28;20104;-67
2022/04/09 07:47:13;;;;;;;7.18;4.18;;;589.50;1433.60;;;;;;5031068;28;20037;-67
2022/04/09 07:49:39;;;;;;;11.15;4.30;;;589.20;1356.80;;;;;;5030982;28;20068;-68
2022/04/09 07:52:05;;;;;;;5.15;2.88;;;589.40;1382.40;;;;;;5031008;28;20029;-65
2022/04/09 07:54:31;;;;;;;4.35;2.40;;;589.10;1408.00;;;;;;5031035;28;20021;-67
2022/04/09 07:56:57;;;;;;;7.03;3.03;;;588.80;1408.00;;;;;;5030729;28;20041;-65
2022/04/09 07:59:23;;;;;;;7.38;5.13;;;588.80;1408.00;;;;;;5031136;28;20430;-63
2022/04/09 08:01:48;;;;;;;6.68;2.85;;;564.10;1408.00;;;;;;5030791;28;20033;-63
2022/04/09 08:04:14;;;;;;;6.03;2.40;;;564.00;1433.60;;;;;;5030625;28;20353;-62
2022/04/09 08:06:40;;;;;;;5.53;2.33;;;564.00;1408.00;;;;;;5030587;28;20033;-63
2022/04/09 08:09:05;;;;;;;6.28;2.50;;;564.10;1433.60;;;;;;5030881;28;20438;-63
2022/04/09 08:11:31;;;;;;;6.95;3.30;;;563.80;1408.00;;;;;;5030716;28;20471;-63
2022/04/09 08:13:57;;;;;;;4.82;2.17;;;563.80;1433.60;;;;;;5030564;28;20120;-63
2022/04/09 08:16:25;;;;;;;4.28;2.70;;;563.70;1459.20;;;;;;5030685;28;20025;-62
2022/04/09 08:18:51;;;;;;;6.40;3.00;;;563.40;1484.80;;;;;;5030577;28;20021;-63
2022/04/09 08:21:18;;;;;;;8.60;2.90;;;563.40;1459.20;;;;;;5030239;28;20026;-62
2022/04/09 08:23:46;;;;;;;6.22;3.15;;;563.50;1484.80;;;;;;5030621;28;20076;-63
2022/04/09 08:26:12;;;;;;;4.60;2.47;;;563.60;1459.20;;;;;;5030477;28;20033;-61
2022/04/09 08:28:37;;;;;;;6.90;3.97;;;563.80;1459.20;;;;;;5030300;28;20446;-62
2022/04/09 08:31:03;;;;;;;6.25;3.00;;;564.00;1408.00;;;;;;5030358;28;20033;-63
2022/04/09 08:33:29;;;;;;;4.80;2.88;;;564.00;1433.60;;;;;;5030174;28;20035;-62
2022/04/09 08:35:55;;;;;;;7.43;3.47;;;564.10;1382.40;;;;;;5030366;28;20105;-63
2022/04/09 08:38:21;;;;;;;4.32;2.83;;;588.90;1408.00;;;;;;5030557;28;20494;-63
2022/04/09 08:40:50;;;;;;;6.80;2.58;;;564.10;1433.60;;;;;;5030339;28;20475;-63
2022/04/09 08:43:15;;;;;;;5.25;3.40;;;564.10;1459.20;;;;;;5030349;28;20122;-62
2022/04/09 08:45:41;;;;;;;6.68;3.00;;;564.00;1433.60;;;;;;5030519;28;20022;-63
2022/04/09 08:48:09;;;;;;;7.72;3.17;;;564.10;1408.00;;;;;;5031307;28;20044;-59
2022/04/09 08:50:41;;;;;;;6.10;3.20;;;564.00;1408.00;;;;;;5033021;28;20029;-60
2022/04/09 08:56:29;;;;;;;6.20;3.55;;;564.00;1382.40;;;;;;5033218;28;20032;-60
2022/04/09 08:59:01;;;;;;;7.43;2.55;;;564.00;1382.40;;;;;;5033304;28;20029;-60
2022/04/09 09:01:27;;;;;;;4.88;2.45;;;589.10;1382.40;;;;;;5033436;28;20044;-63
2022/04/09 09:03:54;;;;;;;7.15;2.50;;;589.50;1356.80;;;;;;5033233;28;20061;-63
2022/04/09 09:13:09;;;;;;;5.43;2.58;;;615.00;1280.00;;;;;;4991291;28;20030;-62
2022/04/09 09:15:55;;;;;;;7.32;2.92;;;614.80;1280.00;;;;;;4991236;28;20113;-62
2022/04/09 09:18:28;;;;;;;4.05;2.42;;;615.00;1280.00;;;;;;4991381;28;20115;-63
2022/04/09 09:20:59;;;;;;;8.13;3.13;;;615.00;1305.60;;;;;;4991787;28;20119;-64
2022/04/09 09:23:27;;;;;;;4.38;2.75;;;614.80;1280.00;;;;;;4991224;28;20038;-59
2022/04/09 09:25:57;;;;;;;4.43;2.50;;;614.60;1280.00;;;;;;4991404;28;20095;-62
2022/04/09 09:28:28;;;;;;;5.00;2.60;;;614.80;1305.60;;;;;;4991182;28;20046;-62
2022/04/09 09:30:54;;;;;;;9.13;3.13;;;614.80;1280.00;;;;;;4991573;28;20064;-63
2022/04/09 09:33:20;;;;;;;9.57;3.28;;;614.70;1305.60;;;;;;4990932;28;20480;-63
2022/04/09 09:35:47;;;;;;;5.63;3.28;;;589.70;1305.60;;;;;;4991096;28;20065;-62
2022/04/09 09:38:24;;;;;;;6.97;3.00;;;589.70;1305.60;;;;;;4991085;28;20030;-64
2022/04/09 09:40:51;;;;;;;8.38;3.33;;;589.40;1331.20;;;;;;4991335;28;20046;-63
2022/04/09 09:43:17;;;;;;;7.53;3.60;;;589.40;1356.80;;;;;;4991039;28;20102;-60
2022/04/09 09:45:44;;;;;;;5.25;3.22;;;589.30;1331.20;;;;;;5004693;28;20037;-61
2022/04/09 09:48:29;;;;;;;10.02;3.78;;;589.30;1331.20;;;;;;5032591;28;20034;-62
2022/04/09 09:50:57;;;;;;;8.10;4.57;;;589.40;1305.60;;;;;;5032711;28;20383;-62
2022/04/09 09:53:28;;;;;;;7.78;3.85;;;589.40;1331.20;;;;;;5032370;28;20021;-62
2022/04/09 09:55:55;;;;;;;5.05;3.25;;;589.50;1331.20;;;;;;5032690;28;20160;-59
2022/04/09 09:58:22;;;;;;;7.35;3.92;;;589.50;1305.60;;;;;;5030047;28;20029;-62
2022/04/09 10:00:48;;;;;;;6.32;3.40;;;589.20;1305.60;;;;;;5029594;28;20030;-61
2022/04/09 10:03:16;;;;;;;6.82;2.97;;;589.20;1305.60;;;;;;5032520;28;20386;-61
2022/04/09 10:05:42;;;;;;;7.43;3.17;;;588.80;1305.60;;;;;;5033036;28;20151;-60
2022/04/09 10:08:09;;;;;;;6.90;3.35;;;564.00;1305.60;;;;;;5032983;28;20387;-58
2022/04/09 10:10:37;;;;;;;7.82;3.88;;;563.70;1331.20;;;;;;5032751;28;20529;-60
2022/04/09 10:13:07;;;;;;;6.93;2.88;;;563.80;1356.80;;;;;;5032862;28;20040;-62
2022/04/09 10:15:33;;;;;;;5.30;3.53;;;563.80;1331.20;;;;;;5033053;28;20021;-60
2022/04/09 10:18:01;;;;;;;8.95;3.38;;;563.70;1305.60;;;;;;5032849;28;20132;-63
2022/04/09 10:20:29;;;;;;;8.90;2.72;;;563.70;1305.60;;;;;;5032871;28;20493;-61
2022/04/09 10:22:59;;;;;;;7.22;3.08;;;563.70;1331.20;;;;;;5032797;28;20057;-60
2022/04/09 10:25:30;;;;;;;7.13;2.90;;;563.80;1280.00;;;;;;5032545;28;20017;-59
2022/04/09 10:28:03;;;;;;;8.10;3.08;;;563.70;1305.60;;;;;;5032663;28;20116;-60
2022/04/09 10:30:37;;;;;;;;;;;563.60;1305.60;;;;;;5032750;28;20029;-60
2022/04/09 10:33:03;;;;;;;;;;;563.80;1305.60;;;;;;5032932;28;19932;-60
2022/04/09 10:35:39;;;;;;;5.43;2.70;;;563.90;1280.00;;;;;;5032128;28;20383;-61
2022/04/09 10:38:10;;;;;;;4.68;2.53;;;563.90;1305.60;;;;;;5032547;28;20040;-61
2022/04/09 10:40:56;;;;;;;4.70;2.55;;;564.00;1305.60;;;;;;5032560;28;20029;-62
2022/04/09 10:43:21;;;;;;;9.77;2.75;;;564.00;1280.00;;;;;;5032094;28;20024;-59
2022/04/09 10:46:04;;;;;;;5.57;2.58;;;564.10;1254.40;;;;;;5030421;28;20037;-61
2022/04/09 10:48:42;;;;;;;5.43;2.80;;;588.80;1254.40;;;;;;5032339;28;20108;-60
2022/04/09 10:51:13;;;;;;;6.68;2.75;;;588.80;1280.00;;;;;;5032254;28;20029;-62
2022/04/09 10:53:44;;;;;;;6.30;2.58;;;588.80;1280.00;;;;;;5031843;28;20088;-61
2022/04/09 10:56:29;;;;;;;5.47;2.67;;;588.80;1280.00;;;;;;5032034;28;20479;-61
2022/04/09 10:59:08;;;;;;;5.82;2.65;;;564.10;1331.20;;;;;;5031962;28;20026;-62
2022/04/09 11:01:46;;;;;;;6.43;2.83;;;564.10;1280.00;;;;;;5032363;28;20025;-60
2022/04/09 11:04:34;;;;;;;5.80;2.95;;;588.80;1305.60;;;;;;5030579;28;20037;-62
2022/04/09 11:07:03;;;;;;;5.15;3.00;;;588.80;1254.40;;;;;;5031901;28;20554;-64
2022/04/09 11:09:44;;;;;;;7.78;3.60;;;588.80;1254.40;;;;;;5031596;28;20032;-62
2022/04/09 11:12:11;;;;;;;9.45;3.03;;;588.80;1254.40;;;;;;5031848;28;20029;-67
2022/04/09 11:14:45;;;;;;;4.60;2.55;;;564.10;1254.40;;;;;;5031775;28;20049;-59
2022/04/09 11:17:18;;;;;;;5.18;2.70;;;588.90;1254.40;;;;;;5032075;28;20022;-60
2022/04/09 11:19:46;;;;;;;12.80;3.38;;;589.40;1228.80;;;;;;5031641;28;20025;-66
2022/04/09 11:22:12;;;;;;;6.00;3.15;;;589.60;1228.80;;;;;;5031670;28;20041;-65
2022/04/09 11:24:38;;;;;;;6.47;3.00;;;589.70;1177.60;;;;;;5031403;28;20031;-59
2022/04/09 11:27:05;;;;;;;4.35;2.85;;;589.70;1177.60;;;;;;5031768;28;20375;-59
2022/04/09 11:29:35;;;;;;;7.75;3.85;;;589.60;1203.20;;;;;;5031821;28;20025;-64
2022/04/09 11:32:01;;;;;;;11.43;3.13;;;614.40;1177.60;;;;;;5031491;28;20044;-60
2022/04/09 11:34:26;;;;;;;12.55;3.05;;;589.70;1177.60;;;;;;5030989;28;20049;-63
2022/04/09 11:37:11;;;;;;;8.68;2.83;;;589.50;1203.20;;;;;;5031253;28;20033;-65
2022/04/09 11:39:42;;;;;;;5.57;2.65;;;589.50;1203.20;;;;;;5031171;28;20029;-66
2022/04/09 11:42:09;;;;;;;4.50;2.80;;;589.60;1177.60;;;;;;5029756;28;20053;-62
2022/04/09 11:44:35;;;;;;;6.43;3.35;;;614.50;1177.60;;;;;;5031308;28;20875;-64
2022/04/09 11:47:18;;;;;;;6.45;3.65;;;614.70;1177.60;;;;;;5030995;28;20033;-67
2022/04/09 11:49:47;;;;;;;8.75;3.55;;;614.90;1126.40;;;;;;5031091;28;20029;-65
2022/04/09 11:52:12;;;;;;;7.68;3.13;;;615.00;1152.00;;;;;;5031120;28;20036;-60
2022/04/09 11:54:39;;;;;;;4.65;2.75;;;615.00;1126.40;;;;;;5030870;28;20029;-62
2022/04/09 11:57:10;;;;;;;4.57;2.70;;;615.10;1126.40;;;;;;5031152;28;20022;-60
2022/04/09 11:59:37;;;;;;;8.05;3.70;;;615.10;1126.40;;;;;;5030866;28;20079;-61
2022/04/09 12:02:03;;;;;;;7.30;3.40;;;615.00;1203.20;;;;;;5031335;28;20029;-65
2022/04/09 12:04:34;;;;;;;10.80;2.63;;;615.10;1152.00;;;;;;5030346;28;20133;-64
2022/04/09 12:07:02;;;;;;;7.18;3.83;;;614.80;1126.40;;;;;;5030825;28;20041;-63
2022/04/09 12:09:29;;;;;;;6.88;2.95;;;614.70;1152.00;;;;;;5030610;28;20083;-59
2022/04/09 12:11:55;;;;;;;6.13;2.78;;;614.40;1152.00;;;;;;5027199;28;20095;-61
2022/04/09 12:14:21;;;;;;;4.65;2.35;;;614.40;1152.00;;;;;;5029221;28;20476;-60
2022/04/09 12:16:47;;;;;;;5.13;3.00;;;614.40;1152.00;;;;;;5028736;28;20024;-61
2022/04/09 12:19:13;;;;;;;10.25;3.00;;;614.40;1177.60;;;;;;5029208;28;20076;-59
2022/04/09 12:21:40;;;;;;;4.60;2.72;;;614.40;1152.00;;;;;;5028660;28;20415;-66
2022/04/09 12:24:10;;;;;;;5.75;2.47;;;614.40;1152.00;;;;;;5026906;28;20030;-60
2022/04/09 12:26:44;;;;;;;5.18;2.55;;;589.70;1152.00;;;;;;5025053;28;20124;-63